createdAt,value
2023-01-22T00:02:36.018Z,103717.53
2023-01-22T00:05:13.245Z,103676.78
2023-01-22T00:07:43.462Z,103689.78
2023-01-22T00:10:14.337Z,103675.97
2023-01-22T00:12:43.292Z,103684.72
2023-01-22T00:15:17.947Z,103683.84
2023-01-22T00:17:50.937Z,103707.00
2023-01-22T00:20:20.698Z,103676.78
2023-01-22T00:22:53.237Z,103687.88
2023-01-22T00:25:28.501Z,103666.31
2023-01-22T00:27:58.920Z,103686.25
2023-01-22T00:30:33.527Z,103654.16
2023-01-22T00:33:03.494Z,103666.16
2023-01-22T00:35:35.653Z,103685.94
2023-01-22T00:38:03.963Z,103679.09
2023-01-22T00:40:31.480Z,103676.53
2023-01-22T00:43:01.425Z,103653.19
2023-01-22T00:45:44.998Z,103649.69
2023-01-22T00:48:16.868Z,103650.41
2023-01-22T00:50:44.062Z,103653.91
2023-01-22T00:53:12.401Z,103673.09
2023-01-22T00:55:56.585Z,103649.81
2023-01-22T00:58:26.835Z,103648.81
2023-01-22T01:00:58.184Z,103654.84
2023-01-22T01:03:37.174Z,103648.81
2023-01-22T01:06:11.715Z,103646.22
2023-01-22T01:08:51.246Z,103675.50
2023-01-22T01:11:30.798Z,103667.81
2023-01-22T01:13:59.675Z,103652.09
2023-01-22T01:16:35.104Z,103641.00
2023-01-22T01:19:12.425Z,103643.56
2023-01-22T01:21:45.005Z,103647.94
2023-01-22T01:24:22.212Z,103649.44
2023-01-22T01:26:54.924Z,103645.34
2023-01-22T01:29:24.234Z,103640.06
2023-01-22T01:31:55.510Z,103657.34
2023-01-22T01:34:33.095Z,103663.34
2023-01-22T01:37:05.037Z,103620.00
2023-01-22T01:39:40.266Z,103626.06
2023-01-22T01:42:12.771Z,103618.19
2023-01-22T01:44:43.400Z,103627.59
2023-01-22T01:50:20.356Z,103642.25
2023-01-22T01:52:51.174Z,103629.28
2023-01-22T01:55:26.198Z,103626.81
2023-01-22T01:58:01.615Z,103609.38
2023-01-22T02:00:34.411Z,103652.81
2023-01-22T02:03:06.929Z,103620.81
2023-01-22T02:05:38.437Z,103642.53
2023-01-22T02:08:13.445Z,103630.38
2023-01-22T02:10:46.002Z,103639.81
2023-01-22T02:13:25.369Z,103607.72
2023-01-22T02:15:52.084Z,103645.75
2023-01-22T02:18:25.062Z,103612.91
2023-01-22T02:21:02.610Z,103613.72
2023-01-22T02:23:40.532Z,103612.06
2023-01-22T02:26:12.928Z,103615.38
2023-01-22T02:28:49.051Z,103619.75
2023-01-22T02:31:19.089Z,103624.22
2023-01-22T02:33:47.380Z,103639.66
2023-01-22T02:36:14.122Z,103640.53
2023-01-22T02:38:41.181Z,103640.53
2023-01-22T02:41:09.067Z,103632.59
2023-01-22T02:43:35.970Z,103629.09
2023-01-22T02:46:02.599Z,103625.59
2023-01-22T02:48:29.703Z,103623.81
2023-01-22T02:50:56.284Z,103622.03
2023-01-22T02:53:23.398Z,103623.81
2023-01-22T02:55:50.926Z,103624.66
2023-01-22T02:58:17.511Z,103623.84
2023-01-22T03:00:44.187Z,103625.59
2023-01-22T03:03:15.624Z,103610.66
2023-01-22T03:05:52.612Z,103612.41
2023-01-22T03:08:20.605Z,103606.22
2023-01-22T03:10:47.646Z,103608.00
2023-01-22T03:13:32.799Z,103608.97
2023-01-22T03:16:17.899Z,103608.06
2023-01-22T03:19:02.797Z,103608.06
2023-01-22T03:21:29.338Z,103610.75
2023-01-22T03:23:55.997Z,103612.47
2023-01-22T03:26:24.456Z,103609.88
2023-01-22T03:28:51.959Z,103609.81
2023-01-22T03:31:19.127Z,103616.03
2023-01-22T03:33:46.446Z,103618.66
2023-01-22T03:36:14.926Z,103614.25
2023-01-22T03:38:42.322Z,103609.88
2023-01-22T03:41:12.333Z,103615.16
2023-01-22T03:43:39.294Z,103607.25
2023-01-22T03:46:14.663Z,103616.94
2023-01-22T03:48:42.130Z,103616.94
2023-01-22T03:51:11.733Z,103614.31
2023-01-22T03:53:39.711Z,103619.59
2023-01-22T03:56:10.403Z,103611.66
2023-01-22T03:58:37.844Z,103615.22
2023-01-22T04:01:10.159Z,103618.72
2023-01-22T04:03:37.342Z,103622.16
2023-01-22T04:06:05.604Z,103617.72
2023-01-22T04:08:33.869Z,103617.66
2023-01-22T04:11:02.332Z,103613.34
2023-01-22T04:13:30.881Z,103614.09
2023-01-22T04:15:58.429Z,103623.75
2023-01-22T04:18:25.497Z,103607.91
2023-01-22T04:20:53.066Z,103612.28
2023-01-22T04:23:21.520Z,103608.72
2023-01-22T04:25:49.162Z,103603.34
2023-01-22T04:28:16.744Z,103611.28
2023-01-22T04:30:47.337Z,103612.16
2023-01-22T04:33:13.968Z,103607.72
2023-01-22T04:35:40.835Z,103607.66
2023-01-22T04:38:09.793Z,103612.97
2023-01-22T04:40:36.803Z,103603.25
2023-01-22T04:43:04.955Z,103603.19
2023-01-22T04:45:31.748Z,103604.97
2023-01-22T04:47:59.749Z,103600.59
2023-01-22T04:50:30.325Z,103604.06
2023-01-22T04:52:57.859Z,103606.66
2023-01-22T04:55:25.223Z,103605.78
2023-01-22T04:57:56.011Z,103604.00
2023-01-22T05:00:23.447Z,103606.66
2023-01-22T05:02:50.571Z,103606.59
2023-01-22T05:05:17.259Z,103602.25
2023-01-22T05:07:44.375Z,103596.09
2023-01-22T05:10:11.925Z,103602.19
2023-01-22T05:12:38.985Z,103596.91
2023-01-22T05:15:14.987Z,103593.41
2023-01-22T05:17:49.229Z,103594.25
2023-01-22T05:20:17.000Z,103599.53
2023-01-22T05:22:43.676Z,103607.47
2023-01-22T05:25:10.260Z,103612.72
2023-01-22T05:27:36.810Z,103610.94
2023-01-22T05:30:04.744Z,103605.69
2023-01-22T05:32:31.828Z,103614.44
2023-01-22T05:34:58.886Z,103621.50
2023-01-22T05:37:25.565Z,103624.13
2023-01-22T05:39:52.727Z,103615.34
2023-01-22T05:42:20.959Z,103625.00
2023-01-22T05:44:48.147Z,103626.78
2023-01-22T05:47:15.895Z,103632.06
2023-01-22T05:49:42.955Z,103619.78
2023-01-22T05:52:10.941Z,103622.41
2023-01-22T05:54:40.563Z,103625.91
2023-01-22T05:57:07.593Z,103627.75
2023-01-22T05:59:34.960Z,103625.06
2023-01-22T06:02:01.913Z,103622.41
2023-01-22T06:04:29.671Z,103630.38
2023-01-22T06:06:56.755Z,103625.09
2023-01-22T06:09:24.206Z,103630.44
2023-01-22T06:11:51.682Z,103630.44
2023-01-22T06:14:18.497Z,103632.22
2023-01-22T06:16:45.134Z,103633.09
2023-01-22T06:19:12.738Z,103633.13
2023-01-22T06:21:40.413Z,103631.44
2023-01-22T06:24:07.396Z,103633.19
2023-01-22T06:26:34.078Z,103634.97
2023-01-22T06:29:01.185Z,103637.59
2023-01-22T06:31:28.493Z,103637.59
2023-01-22T06:33:55.210Z,103637.66
2023-01-22T06:36:22.351Z,103633.22
2023-01-22T06:38:49.524Z,103627.06
2023-01-22T06:41:16.081Z,103627.13
2023-01-22T06:43:43.118Z,103628.00
2023-01-22T06:46:09.826Z,103621.84
2023-01-22T06:48:37.390Z,103618.34
2023-01-22T06:51:04.874Z,103620.06
2023-01-22T06:53:31.970Z,103618.34
2023-01-22T06:55:59.893Z,103621.84
2023-01-22T06:58:26.463Z,103625.44
2023-01-22T07:00:53.522Z,103620.16
2023-01-22T07:03:20.630Z,103622.84
2023-01-22T07:05:55.610Z,103629.84
2023-01-22T07:08:22.666Z,103624.63
2023-01-22T07:10:49.201Z,103622.84
2023-01-22T07:13:16.896Z,103624.63
2023-01-22T07:15:43.530Z,103633.41
2023-01-22T07:18:16.815Z,103635.19
2023-01-22T07:20:43.378Z,103630.81
2023-01-22T07:23:10.690Z,103637.88
2023-01-22T07:25:37.588Z,103638.78
2023-01-22T07:28:06.809Z,103631.78
2023-01-22T07:30:33.871Z,103633.50
2023-01-22T07:33:01.687Z,103641.44
2023-01-22T07:35:29.067Z,103635.28
2023-01-22T07:37:58.505Z,103631.78
2023-01-22T07:40:26.604Z,103638.78
2023-01-22T07:42:54.216Z,103645.81
2023-01-22T07:45:21.730Z,103656.38
2023-01-22T07:47:58.866Z,103652.00
2023-01-22T07:50:31.306Z,103651.13
2023-01-22T07:53:00.657Z,103659.91
2023-01-22T07:55:27.781Z,103654.69
2023-01-22T07:58:03.582Z,103661.69
2023-01-22T08:00:30.969Z,103668.75
2023-01-22T08:02:57.602Z,103664.44
2023-01-22T08:05:25.177Z,103682.94
2023-01-22T08:07:51.711Z,103659.19
2023-01-22T08:10:19.277Z,103678.56
2023-01-22T08:12:46.862Z,103672.41
2023-01-22T08:15:15.060Z,103674.19
2023-01-22T08:17:42.659Z,103676.00
2023-01-22T08:20:10.915Z,103676.09
2023-01-22T08:22:37.469Z,103683.94
2023-01-22T08:25:04.327Z,103683.88
2023-01-22T08:27:31.411Z,103681.28
2023-01-22T08:29:58.471Z,103679.53
2023-01-22T08:32:25.155Z,103677.75
2023-01-22T08:34:54.260Z,103679.47
2023-01-22T08:37:24.275Z,103675.91
2023-01-22T08:39:50.875Z,103678.47
2023-01-22T08:42:17.751Z,103681.91
2023-01-22T08:44:44.339Z,103683.66
2023-01-22T08:47:11.603Z,103691.47
2023-01-22T08:49:38.260Z,103672.03
2023-01-22T08:52:05.051Z,103671.03
2023-01-22T08:54:31.633Z,103671.91
2023-01-22T08:56:58.165Z,103676.16
2023-01-22T08:59:24.725Z,103679.56
2023-01-22T09:01:51.382Z,103684.78
2023-01-22T09:04:19.729Z,103683.88
2023-01-22T09:06:46.796Z,103686.41
2023-01-22T09:09:13.363Z,103692.50
2023-01-22T09:11:40.406Z,103696.88
2023-01-22T09:14:08.454Z,103695.97
2023-01-22T09:16:35.160Z,103696.78
2023-01-22T09:19:01.776Z,103695.00
2023-01-22T09:21:28.425Z,103702.03
2023-01-22T09:23:55.003Z,103701.06
2023-01-22T09:26:22.108Z,103701.94
2023-01-22T09:28:48.911Z,103698.44
2023-01-22T09:31:15.534Z,103698.38
2023-01-22T09:33:42.095Z,103689.59
2023-01-22T09:36:13.414Z,103685.31
2023-01-22T09:38:40.551Z,103681.66
2023-01-22T09:41:27.297Z,103691.31
2023-01-22T09:44:21.121Z,103699.25
2023-01-22T09:47:00.676Z,103701.03
2023-01-22T09:49:38.150Z,103701.03
2023-01-22T09:52:06.313Z,103708.91
2023-01-22T09:54:33.144Z,103708.03
2023-01-22T09:57:04.101Z,103703.66
2023-01-22T09:59:39.245Z,103700.94
2023-01-22T10:02:36.045Z,103700.00
2023-01-22T10:05:22.716Z,103701.84
2023-01-22T10:07:57.537Z,103707.03
2023-01-22T10:10:27.549Z,103701.75
2023-01-22T10:13:18.130Z,103700.84
2023-01-22T10:15:45.291Z,103706.97
2023-01-22T10:18:37.650Z,103709.59
2023-01-22T10:21:12.481Z,103715.72
2023-01-22T10:23:38.997Z,103711.34
2023-01-22T10:26:16.307Z,103710.41
2023-01-22T10:28:51.505Z,103708.66
2023-01-22T10:31:28.376Z,103707.78
2023-01-22T10:34:00.401Z,103714.84
2023-01-22T10:36:28.506Z,103712.16
2023-01-22T10:39:14.150Z,103712.16
2023-01-22T10:41:42.005Z,103714.84
2023-01-22T10:44:23.019Z,103715.56
2023-01-22T10:46:51.558Z,103715.56
2023-01-22T10:49:26.385Z,103711.16
2023-01-22T10:52:04.548Z,103704.13
2023-01-22T10:54:39.601Z,103708.56
2023-01-22T10:57:27.847Z,103705.81
2023-01-22T11:00:16.071Z,103705.81
2023-01-22T11:02:46.003Z,103700.56
2023-01-22T11:05:22.223Z,103702.31
2023-01-22T11:07:56.264Z,103685.59
2023-01-22T11:10:31.280Z,103690.06
2023-01-22T11:13:16.933Z,103692.66
2023-01-22T11:15:53.760Z,103676.78
2023-01-22T11:18:43.147Z,103676.78
2023-01-22T11:21:19.758Z,103681.16
2023-01-22T11:23:59.310Z,103677.59
2023-01-22T11:26:32.990Z,103682.84
2023-01-22T11:29:15.189Z,103675.78
2023-01-22T11:32:07.305Z,103675.78
2023-01-22T11:34:51.411Z,103666.97
2023-01-22T11:37:27.402Z,103661.63
2023-01-22T11:40:03.045Z,103665.97
2023-01-22T11:42:39.008Z,103658.94
2023-01-22T11:45:31.978Z,103665.97
2023-01-22T11:48:06.046Z,103657.22
2023-01-22T11:50:51.918Z,103662.44
2023-01-22T11:53:37.273Z,103655.44
2023-01-22T11:56:23.960Z,103650.09
2023-01-22T11:59:11.578Z,103643.88
2023-01-22T12:01:54.604Z,103638.59
2023-01-22T12:04:45.299Z,103641.25
2023-01-22T12:07:37.011Z,103642.09
2023-01-22T12:10:43.117Z,103641.25
2023-01-22T12:13:28.332Z,103635.03
2023-01-22T12:16:07.411Z,103637.69
2023-01-22T12:18:42.891Z,103633.25
2023-01-22T12:21:13.899Z,103629.75
2023-01-22T12:23:50.619Z,103636.75
2023-01-22T12:26:25.747Z,103636.75
2023-01-22T12:29:04.737Z,103636.75
2023-01-22T12:31:59.147Z,103634.13
2023-01-22T12:34:35.458Z,103632.31
2023-01-22T12:37:04.144Z,103644.63
2023-01-22T12:39:35.751Z,103638.47
2023-01-22T12:42:05.991Z,103643.75
2023-01-22T12:44:46.115Z,103646.41
2023-01-22T12:47:26.876Z,103643.75
2023-01-22T12:49:53.731Z,103632.41
2023-01-22T12:52:29.202Z,103633.38
2023-01-22T12:54:56.609Z,103642.97
2023-01-22T12:57:26.571Z,103638.53
2023-01-22T12:59:58.024Z,103628.88
2023-01-22T13:02:28.338Z,103641.25
2023-01-22T13:04:56.122Z,103635.09
2023-01-22T13:07:31.624Z,103636.00
2023-01-22T13:10:04.662Z,103650.97
2023-01-22T13:12:46.989Z,103643.06
2023-01-22T13:15:31.656Z,103639.63
2023-01-22T13:18:13.800Z,103640.47
2023-01-22T13:20:57.178Z,103638.75
2023-01-22T13:23:25.071Z,103630.00
2023-01-22T13:25:57.161Z,103630.81
2023-01-22T13:28:24.771Z,103632.56
2023-01-22T13:31:13.669Z,103619.38
2023-01-22T13:33:40.820Z,103628.19
2023-01-22T13:36:11.946Z,103629.09
2023-01-22T13:38:38.477Z,103633.47
2023-01-22T13:41:13.072Z,103643.19
2023-01-22T13:43:41.749Z,103644.91
2023-01-22T13:46:14.012Z,103635.25
2023-01-22T13:48:41.765Z,103640.53
2023-01-22T13:51:18.375Z,103633.53
2023-01-22T13:53:54.723Z,103627.38
2023-01-22T13:56:26.552Z,103632.66
2023-01-22T13:59:05.523Z,103631.78
2023-01-22T14:01:36.180Z,103643.28
2023-01-22T14:04:08.374Z,103631.78
2023-01-22T14:06:47.360Z,103643.28
2023-01-22T14:09:25.650Z,103644.19
2023-01-22T14:11:52.768Z,103635.50
2023-01-22T14:14:20.711Z,103641.56
2023-01-22T14:16:47.639Z,103638.91
2023-01-22T14:19:14.890Z,103643.34
2023-01-22T14:21:42.134Z,103649.53
2023-01-22T14:24:08.831Z,103648.63
2023-01-22T14:26:36.532Z,103655.78
2023-01-22T14:29:03.864Z,103652.19
2023-01-22T14:31:30.506Z,103660.13
2023-01-22T14:33:57.617Z,103666.41
2023-01-22T14:36:24.220Z,103663.75
2023-01-22T14:38:53.540Z,103651.44
2023-01-22T14:41:20.174Z,103658.47
2023-01-22T14:43:47.240Z,103669.03
2023-01-22T14:46:15.007Z,103658.47
2023-01-22T14:48:42.078Z,103661.94
2023-01-22T14:51:11.479Z,103663.69
2023-01-22T14:53:38.573Z,103660.19
2023-01-22T14:56:06.091Z,103660.13
2023-01-22T14:58:33.361Z,103660.06
2023-01-22T15:00:59.973Z,103661.84
2023-01-22T15:03:29.690Z,103669.66
2023-01-22T15:05:56.883Z,103668.75
2023-01-22T15:08:24.267Z,103664.34
2023-01-22T15:10:51.366Z,103667.84
2023-01-22T15:13:18.395Z,103660.78
2023-01-22T15:15:44.984Z,103656.41
2023-01-22T15:18:12.041Z,103661.59
2023-01-22T15:20:39.163Z,103669.56
2023-01-22T15:23:05.793Z,103668.69
2023-01-22T15:25:32.397Z,103670.38
2023-01-22T15:27:59.441Z,103664.22
2023-01-22T15:30:26.435Z,103674.81
2023-01-22T15:32:53.478Z,103673.06
2023-01-22T15:35:20.552Z,103680.09
2023-01-22T15:37:48.489Z,103670.38
2023-01-22T15:40:16.349Z,103673.03
2023-01-22T15:42:43.521Z,103667.72
2023-01-22T15:45:11.294Z,103674.81
2023-01-22T15:47:37.863Z,103663.38
2023-01-22T15:50:06.053Z,103675.72
2023-01-22T15:52:32.637Z,103675.66
2023-01-22T15:54:59.744Z,103675.66
2023-01-22T15:57:26.394Z,103674.81
2023-01-22T15:59:52.976Z,103680.03
2023-01-22T16:02:19.604Z,103674.81
2023-01-22T16:04:46.716Z,103673.88
2023-01-22T16:07:13.312Z,103683.59
2023-01-22T16:09:40.036Z,103679.19
2023-01-22T16:12:06.978Z,103686.28
2023-01-22T16:14:34.141Z,103688.13
2023-01-22T16:17:00.793Z,103689.03
2023-01-22T16:19:27.412Z,103686.44
2023-01-22T16:21:54.027Z,103689.13
2023-01-22T16:24:21.190Z,103698.84
2023-01-22T16:26:47.826Z,103691.91
2023-01-22T16:29:14.406Z,103699.84
2023-01-22T16:31:41.179Z,103691.06
2023-01-22T16:34:11.432Z,103697.25
2023-01-22T16:36:38.486Z,103692.00
2023-01-22T16:39:05.940Z,103692.00
2023-01-22T16:41:36.806Z,103699.03
2023-01-22T16:44:18.289Z,103699.06
2023-01-22T16:46:48.242Z,103706.13
2023-01-22T16:49:25.406Z,103702.66
2023-01-22T16:51:54.469Z,103712.38
2023-01-22T16:54:31.363Z,103706.16
2023-01-22T16:57:02.951Z,103708.00
2023-01-22T16:59:31.770Z,103710.69
2023-01-22T17:02:00.049Z,103710.75
2023-01-22T17:04:27.511Z,103709.88
2023-01-22T17:06:56.430Z,103709.00
2023-01-22T17:09:29.086Z,103712.50
2023-01-22T17:12:04.423Z,103723.16
2023-01-22T17:14:35.692Z,103709.13
2023-01-22T17:17:04.031Z,103714.38
2023-01-22T17:19:30.595Z,103719.66
2023-01-22T17:22:01.662Z,103720.53
2023-01-22T17:24:30.299Z,103724.03
2023-01-22T17:26:58.318Z,103722.31
2023-01-22T17:29:25.446Z,103722.31
2023-01-22T17:31:52.445Z,103714.28
2023-01-22T17:34:19.650Z,103717.94
2023-01-22T17:36:46.322Z,103727.59
2023-01-22T17:39:16.321Z,103737.28
2023-01-22T17:41:44.486Z,103730.22
2023-01-22T17:44:11.263Z,103731.09
2023-01-22T17:46:37.990Z,103731.97
2023-01-22T17:49:04.829Z,103730.22
2023-01-22T17:51:33.713Z,103733.75
2023-01-22T17:54:02.161Z,103725.84
2023-01-22T17:56:37.648Z,103731.97
2023-01-22T17:59:06.133Z,103724.94
2023-01-22T18:01:35.138Z,103724.09
2023-01-22T18:04:06.137Z,103737.25
2023-01-22T18:06:33.888Z,103733.66
2023-01-22T18:09:00.828Z,103723.09
2023-01-22T18:11:30.072Z,103722.19
2023-01-22T18:13:57.848Z,103727.47
2023-01-22T18:16:27.488Z,103727.47
2023-01-22T18:18:54.568Z,103728.31
2023-01-22T18:21:22.008Z,103730.91
2023-01-22T18:23:49.226Z,103737.13
2023-01-22T18:26:19.833Z,103745.88
2023-01-22T18:28:46.888Z,103744.03
2023-01-22T18:31:15.613Z,103754.56
2023-01-22T18:33:45.039Z,103755.44
2023-01-22T18:36:15.135Z,103755.41
2023-01-22T18:38:42.743Z,103751.84
2023-01-22T18:41:18.942Z,103755.38
2023-01-22T18:43:51.911Z,103752.72
2023-01-22T18:46:20.414Z,103748.22
2023-01-22T18:48:47.510Z,103757.88
2023-01-22T18:51:14.747Z,103749.94
2023-01-22T18:53:45.074Z,103755.19
2023-01-22T18:56:12.563Z,103753.41
2023-01-22T18:58:41.183Z,103743.78
2023-01-22T19:01:08.956Z,103749.84
2023-01-22T19:03:36.306Z,103756.88
2023-01-22T19:06:05.891Z,103751.56
2023-01-22T19:08:33.020Z,103746.28
2023-01-22T19:11:06.256Z,103746.28
2023-01-22T19:13:35.567Z,103736.63
2023-01-22T19:16:04.367Z,103741.00
2023-01-22T19:18:31.112Z,103748.03
2023-01-22T19:21:03.780Z,103740.09
2023-01-22T19:23:30.453Z,103752.41
2023-01-22T19:26:06.803Z,103744.47
2023-01-22T19:28:33.977Z,103745.38
2023-01-22T19:31:01.577Z,103746.25
2023-01-22T19:33:28.932Z,103748.03
2023-01-22T19:35:56.117Z,103748.94
2023-01-22T19:38:23.070Z,103747.19
2023-01-22T19:40:49.674Z,103747.19
2023-01-22T19:43:16.349Z,103756.88
2023-01-22T19:45:42.975Z,103754.22
2023-01-22T19:48:09.575Z,103761.28
2023-01-22T19:50:36.862Z,103759.47
2023-01-22T19:53:03.482Z,103757.72
2023-01-22T19:55:30.619Z,103755.13
2023-01-22T19:57:57.207Z,103756.00
2023-01-22T20:00:23.769Z,103757.78
2023-01-22T20:02:50.377Z,103763.97
2023-01-22T20:05:17.678Z,103770.94
2023-01-22T20:07:45.388Z,103775.41
2023-01-22T20:10:19.048Z,103773.59
2023-01-22T20:12:49.678Z,103774.50
2023-01-22T20:15:16.653Z,103774.50
2023-01-22T20:17:43.314Z,103771.03
2023-01-22T20:20:10.468Z,103770.19
2023-01-22T20:22:37.995Z,103771.00
2023-01-22T20:25:05.517Z,103771.00
2023-01-22T20:27:32.235Z,103771.00
2023-01-22T20:29:59.316Z,103773.63
2023-01-22T20:32:27.393Z,103778.94
2023-01-22T20:34:54.030Z,103778.94
2023-01-22T20:37:21.127Z,103778.94
2023-01-22T20:39:48.307Z,103772.81
2023-01-22T20:42:14.886Z,103773.69
2023-01-22T20:44:41.791Z,103775.47
2023-01-22T20:47:08.861Z,103782.53
2023-01-22T20:49:37.041Z,103779.03
2023-01-22T20:52:04.274Z,103778.97
2023-01-22T20:54:32.089Z,103778.97
2023-01-22T20:56:58.689Z,103782.53
2023-01-22T20:59:27.275Z,103784.25
2023-01-22T21:01:54.414Z,103786.03
2023-01-22T21:04:21.036Z,103793.94
2023-01-22T21:06:47.802Z,103795.75
2023-01-22T21:09:14.431Z,103797.44
2023-01-22T21:11:42.791Z,103799.22
2023-01-22T21:14:15.552Z,103794.78
2023-01-22T21:16:44.389Z,103790.38
2023-01-22T21:19:18.136Z,103784.25
2023-01-22T21:21:45.090Z,103787.00
2023-01-22T21:24:12.298Z,103792.16
2023-01-22T21:26:39.839Z,103799.22
2023-01-22T21:29:09.686Z,103795.69
2023-01-22T21:31:37.671Z,103791.34
2023-01-22T21:34:06.871Z,103797.47
2023-01-22T21:36:37.048Z,103795.69
2023-01-22T21:39:06.986Z,103794.84
2023-01-22T21:41:34.268Z,103801.00
2023-01-22T21:44:19.628Z,103800.13
2023-01-22T21:46:47.734Z,103810.69
2023-01-22T21:49:17.095Z,103812.47
2023-01-22T21:51:50.107Z,103818.69
2023-01-22T21:54:20.351Z,103809.84
2023-01-22T21:56:47.180Z,103822.13
2023-01-22T21:59:14.144Z,103816.03
2023-01-22T22:01:41.419Z,103807.19
2023-01-22T22:04:09.267Z,103816.00
2023-01-22T22:06:37.233Z,103823.06
2023-01-22T22:09:08.124Z,103824.78
2023-01-22T22:11:34.771Z,103824.84
2023-01-22T22:14:01.468Z,103832.72
2023-01-22T22:16:28.179Z,103836.22
2023-01-22T22:18:56.678Z,103829.25
2023-01-22T22:21:24.098Z,103837.13
2023-01-22T22:23:51.651Z,103831.00
2023-01-22T22:26:19.281Z,103836.28
2023-01-22T22:28:46.371Z,103831.00
2023-01-22T22:31:16.291Z,103831.00
2023-01-22T22:33:45.539Z,103830.13
2023-01-22T22:36:13.976Z,103819.53
2023-01-22T22:38:41.323Z,103832.75
2023-01-22T22:41:15.027Z,103841.56
2023-01-22T22:43:47.220Z,103834.53
2023-01-22T22:46:24.185Z,103836.28
2023-01-22T22:48:51.915Z,103838.06
2023-01-22T22:51:22.127Z,103833.69
2023-01-22T22:53:53.066Z,103837.19
2023-01-22T22:56:20.617Z,103841.59
2023-01-22T22:58:47.714Z,103845.13
2023-01-22T23:01:19.588Z,103838.09
2023-01-22T23:03:47.234Z,103833.75
2023-01-22T23:06:17.454Z,103834.59
2023-01-22T23:08:47.664Z,103836.44
2023-01-22T23:11:16.370Z,103843.47
2023-01-22T23:13:50.830Z,103841.69
2023-01-22T23:16:20.550Z,103840.81
2023-01-22T23:18:50.355Z,103845.25
2023-01-22T23:21:20.420Z,103844.38
2023-01-22T23:23:47.743Z,103849.66
2023-01-22T23:26:17.703Z,103853.19
2023-01-22T23:28:44.664Z,103854.09
2023-01-22T23:31:14.439Z,103851.50
2023-01-22T23:33:41.929Z,103864.66
2023-01-22T23:36:11.768Z,103862.03
2023-01-22T23:38:39.191Z,103858.50
2023-01-22T23:41:08.522Z,103862.03
2023-01-22T23:43:35.624Z,103855.00
2023-01-22T23:46:06.750Z,103854.16
2023-01-22T23:48:33.834Z,103865.56
2023-01-22T23:51:01.289Z,103862.94
2023-01-22T23:53:28.187Z,103870.00
2023-01-22T23:56:02.204Z,103871.75
2023-01-22T23:58:28.933Z,103866.44
